Gustavo Rojas Pinilla International Airport
SKSP : now visible

Airfield :











YOU CAN JOIN US ON...

 
LOGIN :

Register | Disclaimer

   EN    FR    IT 

 









Legend :    VFR   Marginal VFR   IFR   Intensive IFR   Very Intensive IFR
Visi :
Ceiling :
>= 8 km
>= 3000ft
5 to 8 km
1000 to 3000 ft
1500m to 5 km
500 to 1000 ft
800 to 1500m
200 to 500 ft
< 800m
< 200 ft
Symbols :   Thunderstorms  Fog  Heavy snow  Heavy precipitations  Wind > 20 kt






- Airport Elevation : 19 ft
- IATA code : ADZ


SKSP - Gustavo Rojas Pinilla International

CURRENT METAR :
  • 191600Z 06017KT 9999 FEW017 BKN080 29/23 A2994

EXPIRED METARs :
  • 191500Z 05015KT 9999 FEW017 BKN080 29/24 A2993
  • 191400Z 05019KT 9999 FEW017 SCT080 28/23 A2992

TAF TAF SKSP
Valid from the 19 at 12:00 until the 20 at 12:00 UTC


191030Z 1912/2012 05018KT 9999 FEW017 SCT080
TEMPO 1912/1914 DZ SCT014TCU
TEMPO 1918/1921 DZ SCT016TCU TX30/1919Z TN26/2011Z



MET'MAP, your aeronautical weather chart ! - Copyright ORBIFLY December 2007 - Disclaimer

ORBIFLY MET'MAP TEAM :

Programming & Development : Alexandra Zaïnal
Concept & original design : Baudouin d'Aumeries
Assistance for programming : Marc-Olivier Méhu
Technical & hardware support : Manuel Goepfert

Contact : metmap@orbifly.com




SOURCES & CREDITS :

   NOAA       Earth
Advisory